Main page
METAR-TAF:

METAR-TAF

Airports :

Nörvenich Air Base

Nörvenich, Germany

latitude: 50-50N, longitude: 006-40E, elevation: 118 m

Current weather observation

The report was made 1 hour and 0 minutes ago, at 15:20 UTC
Wind 11 kt from the North with gusts up to 22 kt
Temperature 21°C
Humidity 25%
Pressure 1030 hPa
Visibility 10 km or more
Few clouds at a height of 6000 ft

METAR: ETNN 281520Z 01011G22KT 9999 FEW060 21/00 Q1030 BLU+

Time: 18:20 (16:20 UTC)

Forecast

The report was made 3 hours and 7 minutes ago, at 13:13 UTC
Forecast valid from 28 at 14 UTC to 28 at 23 UTC
Wind 10 kt from the North/Northeast
Visibility 10 km or more
Clear sky

TAF: ETNN 281313Z 2814/2823 02010KT 9999 NSW SKC BY ETGL

Weather observations and forecasts of more than 4000 airports (METAR and TAF reports).

The available stations are represented by yellow and red dots on the map.

Hover mouse over dot to see the name of the station.

Then click to see weather observations and forecasts.

To change the map : click on the green buttons with a black cross to zoom in, on the green button with a dash to zoom out, or on the green arrows for adjacent maps.


METAR-TAF: